Wetterstation Vordersexau
Wetterdaten: Woche 08.04.13 - 14.04.13 (KW15)
Datum Zeit Temp. A. Feuchte A. Luftdruck Regen Wind Richtung Taupunkt Windchill Windben
08.04.2013 00:00 0,1 C 76 % 1010,4 hPa 0,0 l/m 0,6 km/h S-SW -3,6 C 0,1 C 0,4 km/h
08.04.2013 01:00 -1,1 C 78 % 1010,0 hPa 0,0 l/m 0,0 km/h SW -4,4 C -1,1 C 0,0 km/h
08.04.2013 02:00 -0,8 C 81 % 1008,8 hPa 0,0 l/m 0,0 km/h NW -3,6 C -0,8 C 0,0 km/h
08.04.2013 03:00 -0,5 C 80 % 1007,3 hPa 0,0 l/m 0,0 km/h O-SO -3,5 C -0,5 C 0,0 km/h
08.04.2013 04:00 -0,7 C 82 % 1006,3 hPa 0,0 l/m 3,2 km/h O-SO -3,4 C -0,7 C 1,8 km/h
08.04.2013 05:00 -0,2 C 82 % 1006,1 hPa 0,0 l/m 0,0 km/h NO -2,9 C -0,2 C 0,0 km/h
08.04.2013 06:00 0,1 C 82 % 1005,4 hPa 0,0 l/m 0,0 km/h O-SO -2,6 C 0,1 C 0,0 km/h
08.04.2013 07:00 -0,7 C 83 % 1005,3 hPa 0,0 l/m 0,0 km/h SO -3,2 C -0,7 C 0,0 km/h
08.04.2013 08:00 1,4 C 82 % 1005,3 hPa 0,0 l/m 0,0 km/h S-SO -1,3 C 1,4 C 0,0 km/h
08.04.2013 09:00 3,8 C 79 % 1005,0 hPa 0,0 l/m 0,0 km/h S-SW 0,5 C 3,8 C 0,0 km/h
08.04.2013 10:00 7,2 C 67 % 1004,8 hPa 0,0 l/m 0,0 km/h N 1,5 C 7,2 C 0,0 km/h
08.04.2013 11:00 7,9 C 62 % 1004,5 hPa 0,0 l/m 0,0 km/h W-SW 1,1 C 7,9 C 0,0 km/h
08.04.2013 12:00 8,6 C 58 % 1004,2 hPa 0,0 l/m 0,0 km/h N-NW 0,8 C 8,6 C 0,0 km/h
08.04.2013 13:00 10,9 C 56 % 1003,5 hPa 0,0 l/m 0,6 km/h W-NW 2,5 C 10,9 C 0,4 km/h
08.04.2013 14:00 12,5 C 53 % 1003,0 hPa 0,0 l/m 14,9 km/h N-NW 3,2 C 8,2 C 8,3 km/h
08.04.2013 15:00 11,1 C 54 % 1002,2 hPa 0,0 l/m 22,7 km/h N-NW 2,2 C 3,9 C 12,6 km/h
08.04.2013 16:00 10,4 C 59 % 1002,4 hPa 0,0 l/m 33,0 km/h W-NW 2,7 C 0,6 C 18,4 km/h
08.04.2013 17:00 8,1 C 75 % 1002,9 hPa 0,0 l/m 6,5 km/h W-NW 3,9 C 8,0 C 3,6 km/h
08.04.2013 18:00 7,8 C 76 % 1002,8 hPa 0,0 l/m 5,2 km/h W-NW 3,8 C 7,8 C 2,9 km/h
08.04.2013 19:00 7,6 C 76 % 1003,0 hPa 0,0 l/m 7,8 km/h W-SW 3,6 C 6,5 C 4,3 km/h
08.04.2013 20:00 6,6 C 80 % 1003,1 hPa 0,0 l/m 11,7 km/h S-SW 3,4 C 2,8 C 6,5 km/h
08.04.2013 21:00 5,8 C 81 % 1003,2 hPa 0,0 l/m 2,6 km/h SW 2,8 C 5,8 C 1,4 km/h
08.04.2013 22:00 6,1 C 81 % 1003,3 hPa 0,0 l/m 4,5 km/h SO 3,1 C 6,1 C 2,5 km/h
08.04.2013 23:00 5,6 C 83 % 1003,2 hPa 0,0 l/m 0,0 km/h SO 2,9 C 5,6 C 0,0 km/h
09.04.2013 00:00 5,3 C 84 % 1003,0 hPa 0,5 l/m 0,0 km/h O-SO 2,8 C 5,3 C 0,0 km/h
09.04.2013 01:00 5,3 C 84 % 1002,8 hPa 0,0 l/m 0,0 km/h W 2,8 C 5,3 C 0,0 km/h
09.04.2013 02:00 5,3 C 83 % 1003,1 hPa 1,6 l/m 0,0 km/h S-SO 2,7 C 5,3 C 0,0 km/h
09.04.2013 03:00 4,9 C 83 % 1002,9 hPa 0,0 l/m 0,0 km/h O-SO 2,3 C 4,9 C 0,0 km/h
09.04.2013 04:00 4,9 C 82 % 1002,7 hPa 0,0 l/m 0,0 km/h NO 2,1 C 4,9 C 0,0 km/h
09.04.2013 05:00 5,3 C 81 % 1002,6 hPa 0,0 l/m 0,0 km/h W-SW 2,3 C 5,3 C 0,0 km/h
09.04.2013 06:00 5,8 C 85 % 1002,5 hPa 0,0 l/m 1,9 km/h S-SW 3,5 C 5,8 C 1,1 km/h
09.04.2013 07:00 6,1 C 84 % 1002,3 hPa 0,0 l/m 0,0 km/h SO 3,6 C 6,1 C 0,0 km/h
09.04.2013 08:00 7,2 C 85 % 1001,9 hPa 0,0 l/m 0,0 km/h S-SW 4,9 C 7,2 C 0,0 km/h
09.04.2013 09:00 12,4 C 68 % 1001,3 hPa 0,0 l/m 0,0 km/h SW 6,7 C 12,4 C 0,0 km/h
09.04.2013 10:00 11,7 C 66 % 1000,8 hPa 0,0 l/m 5,8 km/h N-NW 5,6 C 11,7 C 3,2 km/h
09.04.2013 11:00 8,4 C 72 % 1000,9 hPa 0,0 l/m 16,2 km/h NW 3,7 C 2,7 C 9,0 km/h
09.04.2013 12:00 7,3 C 82 % 1001,0 hPa 1,0 l/m 0,0 km/h W-NW 4,4 C 7,3 C 0,0 km/h
09.04.2013 13:00 6,8 C 84 % 1001,2 hPa 1,0 l/m 5,8 km/h NW 4,3 C 6,8 C 3,2 km/h
09.04.2013 14:00 9,3 C 80 % 1001,1 hPa 0,5 l/m 24,0 km/h NW 6,0 C 1,2 C 13,3 km/h
09.04.2013 15:00 9,9 C 76 % 1000,9 hPa 0,0 l/m 40,8 km/h W-NW 5,9 C -1,4 C 22,7 km/h
09.04.2013 16:00 13,2 C 72 % 1001,3 hPa 0,0 l/m 10,4 km/h W-NW 8,3 C 10,9 C 5,8 km/h
09.04.2013 17:00 11,6 C 73 % 1000,8 hPa 0,0 l/m 17,5 km/h W-SW 6,9 C 6,2 C 9,7 km/h
09.04.2013 18:00 10,3 C 75 % 1001,3 hPa 0,0 l/m 5,8 km/h W 6,1 C 10,3 C 3,2 km/h
09.04.2013 19:00 9,6 C 75 % 1001,8 hPa 0,0 l/m 15,6 km/h NW 5,4 C 4,4 C 8,6 km/h
09.04.2013 20:00 8,6 C 76 % 1002,2 hPa 0,0 l/m 14,9 km/h W 4,6 C 3,5 C 8,3 km/h
09.04.2013 21:00 8,2 C 77 % 1002,6 hPa 0,0 l/m 18,8 km/h W 4,4 C 1,4 C 10,4 km/h
09.04.2013 22:00 8,9 C 74 % 1003,0 hPa 0,0 l/m 20,1 km/h W-NW 4,5 C 1,8 C 11,2 km/h
09.04.2013 23:00 8,2 C 78 % 1002,3 hPa 0,0 l/m 22,0 km/h W-NW 4,6 C 0,3 C 12,2 km/h
10.04.2013 00:00 8,1 C 81 % 1002,7 hPa 0,0 l/m 21,4 km/h W-NW 5,0 C 0,4 C 11,9 km/h
10.04.2013 01:00 7,8 C 82 % 1003,1 hPa 0,5 l/m 27,9 km/h N 4,9 C -1,9 C 15,5 km/h
10.04.2013 02:00 8,1 C 82 % 1003,7 hPa 0,0 l/m 29,8 km/h W 5,2 C -2,0 C 16,6 km/h
10.04.2013 03:00 8,1 C 80 % 1004,4 hPa 0,0 l/m 22,0 km/h N-NW 4,9 C 0,2 C 12,2 km/h
10.04.2013 04:00 8,6 C 75 % 1004,8 hPa 0,0 l/m 46,0 km/h NW 4,4 C -4,0 C 25,6 km/h
10.04.2013 05:00 8,8 C 72 % 1005,4 hPa 0,0 l/m 28,5 km/h W-NW 4,0 C -0,7 C 15,8 km/h
10.04.2013 06:00 8,6 C 72 % 1006,0 hPa 0,0 l/m 33,7 km/h W-NW 3,8 C -2,1 C 18,7 km/h
10.04.2013 07:00 8,3 C 74 % 1006,5 hPa 0,0 l/m 42,8 km/h N-NW 3,9 C -4,0 C 23,8 km/h
10.04.2013 08:00 8,9 C 73 % 1007,5 hPa 0,0 l/m 39,5 km/h NW 4,3 C -2,7 C 22,0 km/h
10.04.2013 09:00 8,8 C 75 % 1008,3 hPa 0,0 l/m 29,2 km/h NW 4,6 C -0,8 C 16,2 km/h
10.04.2013 10:00 10,4 C 69 % 1008,2 hPa 0,0 l/m 31,8 km/h NW 5,0 C 0,9 C 17,6 km/h
10.04.2013 11:00 11,9 C 68 % 1008,6 hPa 0,0 l/m 36,9 km/h NW 6,2 C 2,1 C 20,5 km/h
10.04.2013 12:00 11,4 C 66 % 1008,7 hPa 0,0 l/m 32,4 km/h NW 5,3 C 2,2 C 18,0 km/h
10.04.2013 13:00 13,8 C 62 % 1008,5 hPa 0,0 l/m 17,5 km/h NW 6,6 C 8,9 C 9,7 km/h
10.04.2013 14:00 15,5 C 59 % 1008,4 hPa 0,0 l/m 49,2 km/h N-NW 7,5 C 6,2 C 27,4 km/h
10.04.2013 15:00 14,9 C 53 % 1008,3 hPa 0,0 l/m 49,9 km/h W-NW 5,4 C 5,2 C 27,7 km/h
10.04.2013 16:00 15,3 C 53 % 1008,0 hPa 0,0 l/m 39,5 km/h N-NW 5,8 C 6,8 C 22,0 km/h
10.04.2013 17:00 13,1 C 58 % 1008,3 hPa 0,0 l/m 20,7 km/h N 5,0 C 7,1 C 11,5 km/h
10.04.2013 18:00 13,1 C 59 % 1008,4 hPa 0,0 l/m 13,0 km/h N-NW 5,3 C 9,7 C 7,2 km/h
10.04.2013 19:00 12,0 C 62 % 1008,4 hPa 0,0 l/m 14,3 km/h N-NW 4,9 C 7,8 C 7,9 km/h
10.04.2013 20:00 10,6 C 66 % 1008,4 hPa 0,0 l/m 0,0 km/h SO 4,5 C 10,6 C 0,0 km/h
10.04.2013 21:00 9,8 C 73 % 1008,5 hPa 0,0 l/m 0,0 km/h SO 5,2 C 9,8 C 0,0 km/h
10.04.2013 22:00 9,1 C 77 % 1008,2 hPa 0,0 l/m 0,0 km/h S-SO 5,3 C 9,1 C 0,0 km/h
10.04.2013 23:00 8,6 C 80 % 1008,0 hPa 0,0 l/m 0,0 km/h SO 5,3 C 8,6 C 0,0 km/h
11.04.2013 00:00 8,3 C 82 % 1008,0 hPa 0,0 l/m 0,0 km/h O-SO 5,4 C 8,3 C 0,0 km/h
11.04.2013 01:00 8,2 C 83 % 1007,2 hPa 0,0 l/m 0,0 km/h SW 5,5 C 8,2 C 0,0 km/h
11.04.2013 02:00 8,9 C 84 % 1006,7 hPa 1,0 l/m 6,5 km/h S 6,3 C 8,9 C 3,6 km/h
11.04.2013 03:00 8,5 C 84 % 1005,4 hPa 1,0 l/m 0,0 km/h O-SO 6,0 C 8,5 C 0,0 km/h
11.04.2013 04:00 8,4 C 83 % 1005,2 hPa 1,0 l/m 0,0 km/h W-NW 5,7 C 8,4 C 0,0 km/h
11.04.2013 05:00 10,0 C 82 % 1004,3 hPa 0,0 l/m 11,7 km/h W-NW 7,1 C 6,7 C 6,5 km/h
11.04.2013 06:00 12,1 C 82 % 1003,7 hPa 0,0 l/m 21,4 km/h W-NW 9,1 C 5,6 C 11,9 km/h
11.04.2013 07:00 11,1 C 84 % 1003,6 hPa 1,0 l/m 6,5 km/h W-NW 8,5 C 11,1 C 3,6 km/h
11.04.2013 08:00 12,3 C 82 % 1003,9 hPa 0,5 l/m 22,0 km/h NW 9,3 C 5,7 C 12,2 km/h
11.04.2013 09:00 12,8 C 83 % 1004,2 hPa 1,0 l/m 25,3 km/h W-NW 10,0 C 5,6 C 14,0 km/h
11.04.2013 10:00 13,8 C 80 % 1004,4 hPa 0,0 l/m 38,2 km/h W-NW 10,4 C 4,8 C 21,2 km/h
11.04.2013 11:00 14,9 C 76 % 1004,4 hPa 0,0 l/m 32,4 km/h W-NW 10,7 C 7,2 C 18,0 km/h
11.04.2013 12:00 14,3 C 78 % 1004,2 hPa 0,0 l/m 24,0 km/h W-NW 10,5 C 7,9 C 13,3 km/h
11.04.2013 13:00 13,8 C 83 % 1004,2 hPa 0,5 l/m 3,9 km/h W-SW 11,0 C 13,8 C 2,2 km/h
11.04.2013 14:00 14,5 C 83 % 1003,8 hPa 0,5 l/m 3,2 km/h N 11,6 C 14,5 C 1,8 km/h
11.04.2013 15:00 14,8 C 80 % 1003,1 hPa 0,0 l/m 0,0 km/h S 11,4 C 14,8 C 0,0 km/h
11.04.2013 16:00 13,6 C 83 % 1002,4 hPa 1,6 l/m 7,8 km/h SW 10,8 C 12,7 C 4,3 km/h
11.04.2013 17:00 13,9 C 82 % 1002,1 hPa 0,5 l/m 3,9 km/h W-SW 10,9 C 13,9 C 2,2 km/h
11.04.2013 18:00 13,6 C 83 % 1001,9 hPa 0,5 l/m 13,6 km/h SW 10,8 C 10,0 C 7,6 km/h
11.04.2013 19:00 13,3 C 84 % 1001,0 hPa 0,0 l/m 16,8 km/h W-SW 10,7 C 8,5 C 9,4 km/h
11.04.2013 20:00 13,0 C 82 % 1000,6 hPa 0,0 l/m 8,4 km/h W 10,0 C 11,8 C 4,7 km/h
11.04.2013 21:00 12,2 C 84 % 1001,1 hPa 0,5 l/m 14,3 km/h W-SW 9,6 C 8,1 C 7,9 km/h
11.04.2013 22:00 11,5 C 83 % 1000,3 hPa 1,0 l/m 3,2 km/h SW 8,7 C 11,5 C 1,8 km/h
11.04.2013 23:00 11,2 C 82 % 1000,4 hPa 0,5 l/m 15,6 km/h W-NW 8,2 C 6,4 C 8,6 km/h
12.04.2013 00:00 10,9 C 84 % 1000,3 hPa 1,0 l/m 13,6 km/h W-NW 8,3 C 6,8 C 7,6 km/h
12.04.2013 01:00 10,8 C 83 % 1000,9 hPa 1,0 l/m 17,5 km/h W-NW 8,0 C 5,2 C 9,7 km/h
12.04.2013 02:00 10,1 C 84 % 1002,4 hPa 0,5 l/m 40,8 km/h W-NW 7,5 C -1,1 C 22,7 km/h
12.04.2013 03:00 9,3 C 84 % 1003,7 hPa 0,5 l/m 24,6 km/h N-NW 6,7 C 1,0 C 13,7 km/h
12.04.2013 04:00 9,2 C 84 % 1003,9 hPa 0,5 l/m 29,2 km/h NW 6,6 C -0,3 C 16,2 km/h
12.04.2013 05:00 9,0 C 84 % 1004,6 hPa 0,5 l/m 21,4 km/h NW 6,4 C 1,5 C 11,9 km/h
12.04.2013 06:00 9,3 C 84 % 1005,1 hPa 0,0 l/m 22,7 km/h NW 6,7 C 1,5 C 12,6 km/h
12.04.2013 07:00 8,8 C 84 % 1005,3 hPa 0,0 l/m 17,5 km/h W 6,2 C 2,6 C 9,7 km/h
12.04.2013 08:00 10,4 C 80 % 1006,2 hPa 0,0 l/m 14,9 km/h W-NW 7,1 C 5,7 C 8,3 km/h
12.04.2013 09:00 10,4 C 80 % 1006,5 hPa 0,0 l/m 25,3 km/h N-NW 7,1 C 2,3 C 14,0 km/h
12.04.2013 10:00 11,9 C 74 % 1006,7 hPa 0,0 l/m 30,5 km/h N-NW 7,4 C 3,2 C 16,9 km/h
12.04.2013 11:00 13,4 C 67 % 1006,9 hPa 0,0 l/m 19,4 km/h NW 7,4 C 7,8 C 10,8 km/h
12.04.2013 12:00 13,8 C 64 % 1007,0 hPa 0,0 l/m 23,3 km/h NW 7,1 C 7,4 C 13,0 km/h
12.04.2013 13:00 14,0 C 62 % 1006,6 hPa 0,0 l/m 37,6 km/h NW 6,8 C 5,1 C 20,9 km/h
12.04.2013 14:00 16,1 C 58 % 1005,7 hPa 0,0 l/m 38,9 km/h N 7,8 C 8,1 C 21,6 km/h
12.04.2013 15:00 10,6 C 71 % 1006,6 hPa 0,0 l/m 23,3 km/h W-NW 5,6 C 3,1 C 13,0 km/h
12.04.2013 16:00 14,3 C 65 % 1006,6 hPa 0,5 l/m 24,6 km/h N-NW 7,8 C 7,7 C 13,7 km/h
12.04.2013 17:00 11,8 C 66 % 1007,7 hPa 0,0 l/m 30,5 km/h N 5,7 C 3,1 C 16,9 km/h
12.04.2013 18:00 10,6 C 69 % 1008,1 hPa 0,0 l/m 22,0 km/h W-NW 5,2 C 3,5 C 12,2 km/h
12.04.2013 19:00 10,3 C 70 % 1007,9 hPa 0,0 l/m 36,9 km/h NW 5,1 C -0,2 C 20,5 km/h
12.04.2013 20:00 9,8 C 75 % 1009,0 hPa 0,0 l/m 29,8 km/h W-NW 5,6 C 0,4 C 16,6 km/h
12.04.2013 21:00 9,3 C 77 % 1009,8 hPa 0,0 l/m 22,7 km/h W-NW 5,5 C 1,5 C 12,6 km/h
12.04.2013 22:00 9,1 C 75 % 1010,9 hPa 0,0 l/m 31,8 km/h NW 4,9 C -1,0 C 17,6 km/h
12.04.2013 23:00 9,1 C 75 % 1011,5 hPa 0,0 l/m 44,7 km/h W-NW 4,9 C -3,1 C 24,8 km/h
13.04.2013 00:00 9,3 C 75 % 1011,9 hPa 0,0 l/m 45,4 km/h W-NW 5,1 C -2,9 C 25,2 km/h
13.04.2013 01:00 9,5 C 76 % 1012,5 hPa 0,0 l/m 24,0 km/h NW 5,5 C 1,4 C 13,3 km/h
13.04.2013 02:00 9,5 C 76 % 1013,1 hPa 0,0 l/m 24,0 km/h NW 5,5 C 1,4 C 13,3 km/h
13.04.2013 03:00 8,7 C 80 % 1013,6 hPa 0,0 l/m 26,6 km/h NW 5,4 C -0,4 C 14,8 km/h
13.04.2013 04:00 8,4 C 80 % 1014,4 hPa 0,0 l/m 24,0 km/h NW 5,2 C -0,1 C 13,3 km/h
13.04.2013 05:00 8,1 C 81 % 1015,0 hPa 0,0 l/m 20,7 km/h W-NW 5,0 C 0,6 C 11,5 km/h
13.04.2013 06:00 8,2 C 81 % 1015,4 hPa 0,0 l/m 14,3 km/h W-NW 5,1 C 3,3 C 7,9 km/h
13.04.2013 07:00 8,4 C 81 % 1016,0 hPa 0,0 l/m 7,1 km/h NW 5,3 C 7,9 C 4,0 km/h
13.04.2013 08:00 9,2 C 79 % 1016,8 hPa 0,0 l/m 9,7 km/h W-NW 5,8 C 6,9 C 5,4 km/h
13.04.2013 09:00 10,5 C 77 % 1017,6 hPa 0,0 l/m 13,6 km/h W 6,6 C 6,3 C 7,6 km/h
13.04.2013 10:00 12,6 C 72 % 1018,2 hPa 0,0 l/m 18,8 km/h W-NW 7,7 C 7,0 C 10,4 km/h
13.04.2013 11:00 13,3 C 68 % 1018,9 hPa 0,0 l/m 13,6 km/h NW 7,5 C 9,7 C 7,6 km/h
13.04.2013 12:00 14,3 C 63 % 1019,3 hPa 0,0 l/m 42,1 km/h N-NW 7,4 C 5,0 C 23,4 km/h
13.04.2013 13:00 14,8 C 54 % 1019,6 hPa 0,0 l/m 19,4 km/h N 5,6 C 9,6 C 10,8 km/h
13.04.2013 14:00 15,3 C 54 % 1019,6 hPa 0,0 l/m 15,6 km/h N-NW 6,0 C 11,4 C 8,6 km/h
13.04.2013 15:00 16,9 C 48 % 1019,5 hPa 0,0 l/m 25,9 km/h N-NW 5,8 C 11,0 C 14,4 km/h
13.04.2013 16:00 19,9 C 44 % 1019,3 hPa 0,0 l/m 21,4 km/h NW 7,3 C 15,8 C 11,9 km/h
13.04.2013 17:00 19,1 C 44 % 1019,3 hPa 0,0 l/m 20,1 km/h NW 6,6 C 15,0 C 11,2 km/h
13.04.2013 18:00 17,8 C 45 % 1019,4 hPa 0,0 l/m 20,1 km/h N 5,7 C 13,3 C 11,2 km/h
13.04.2013 19:00 14,7 C 51 % 1019,8 hPa 0,0 l/m 5,2 km/h W-NW 4,7 C 14,7 C 2,9 km/h
13.04.2013 20:00 10,9 C 59 % 1020,4 hPa 0,0 l/m 0,0 km/h S-SO 3,2 C 10,9 C 0,0 km/h
13.04.2013 21:00 9,9 C 67 % 1021,5 hPa 0,0 l/m 0,0 km/h S-SW 4,1 C 9,9 C 0,0 km/h
13.04.2013 22:00 9,7 C 71 % 1021,7 hPa 0,0 l/m 4,5 km/h SO 4,7 C 9,7 C 2,5 km/h
13.04.2013 23:00 8,9 C 75 % 1022,0 hPa 0,0 l/m 0,0 km/h SO 4,7 C 8,9 C 0,0 km/h
14.04.2013 00:00 8,5 C 76 % 1022,5 hPa 0,0 l/m 0,0 km/h SO 4,5 C 8,5 C 0,0 km/h
14.04.2013 01:00 8,2 C 77 % 1022,4 hPa 0,0 l/m 0,0 km/h S-SO 4,4 C 8,2 C 0,0 km/h
14.04.2013 02:00 8,3 C 78 % 1022,6 hPa 0,0 l/m 0,0 km/h O-SO 4,7 C 8,3 C 0,0 km/h
14.04.2013 03:00 8,5 C 79 % 1022,5 hPa 0,0 l/m 0,0 km/h S-SW 5,1 C 8,5 C 0,0 km/h
14.04.2013 04:00 8,6 C 79 % 1022,7 hPa 0,0 l/m 3,9 km/h SO 5,2 C 8,6 C 2,2 km/h
14.04.2013 05:00 8,8 C 79 % 1022,6 hPa 0,0 l/m 0,0 km/h S 5,4 C 8,8 C 0,0 km/h
14.04.2013 06:00 8,4 C 80 % 1022,5 hPa 0,0 l/m 3,9 km/h O-SO 5,2 C 8,4 C 2,2 km/h
14.04.2013 07:00 8,9 C 81 % 1022,6 hPa 0,0 l/m 0,0 km/h S 5,8 C 8,9 C 0,0 km/h
14.04.2013 08:00 11,9 C 75 % 1022,7 hPa 0,0 l/m 1,3 km/h S-SW 7,6 C 11,9 C 0,7 km/h
14.04.2013 09:00 19,3 C 57 % 1022,7 hPa 0,0 l/m 19,4 km/h NW 10,6 C 15,4 C 10,8 km/h
14.04.2013 10:00 23,6 C 48 % 1022,4 hPa 0,0 l/m 3,2 km/h N-NW 11,9 C 23,6 C 1,8 km/h
14.04.2013 11:00 25,3 C 43 % 1022,5 hPa 0,0 l/m 7,8 km/h N 11,8 C 25,0 C 4,3 km/h
14.04.2013 12:00 26,4 C 39 % 1022,1 hPa 0,0 l/m 18,1 km/h N 11,3 C 24,7 C 10,1 km/h
14.04.2013 13:00 24,9 C 39 % 1021,9 hPa 0,0 l/m 10,4 km/h NW 10,0 C 24,0 C 5,8 km/h
14.04.2013 14:00 25,3 C 39 % 1021,3 hPa 0,0 l/m 3,2 km/h O-NO 10,3 C 25,3 C 1,8 km/h
14.04.2013 15:00 29,5 C 32 % 1020,4 hPa 0,0 l/m 0,0 km/h O-SO 11,0 C 29,5 C 0,0 km/h
14.04.2013 16:00 32,2 C 28 % 1019,9 hPa 0,0 l/m 0,0 km/h N-NO 11,3 C 32,2 C 0,0 km/h
14.04.2013 17:00 30,1 C 30 % 1019,6 hPa 0,0 l/m 7,1 km/h N-NO 10,6 C 30,0 C 4,0 km/h
14.04.2013 18:00 30,9 C 28 % 1019,3 hPa 0,0 l/m 5,8 km/h N 10,2 C 30,9 C 3,2 km/h
14.04.2013 19:00 28,1 C 29 % 1018,9 hPa 0,0 l/m 0,0 km/h O-SO 8,4 C 28,1 C 0,0 km/h
14.04.2013 20:00 19,3 C 49 % 1019,2 hPa 0,0 l/m 0,0 km/h O-SO 8,3 C 19,3 C 0,0 km/h
14.04.2013 21:00 14,9 C 62 % 1019,4 hPa 0,0 l/m 0,0 km/h O-SO 7,7 C 14,9 C 0,0 km/h
14.04.2013 22:00 13,6 C 68 % 1019,4 hPa 0,0 l/m 0,0 km/h O-SO 7,8 C 13,6 C 0,0 km/h
14.04.2013 23:00 13,8 C 66 % 1019,2 hPa 0,0 l/m 0,0 km/h S 7,6 C 13,8 C 0,0 km/h
Min-Datum _ 08.04.13 14.04.13 11.04.13 - 08.04.13 - 08.04.13 10.04.13 08.04.13
_ Min-Zeit 01:19 16:19 22:19 - 01:19 - 01:19 07:19 01:19
Minimum _ -1,1 C 28 % 1000,3 hPa - 0,0 km/h - -4,4 C -4,0 C 0,0 km/h
Max-Datum _ 14.04.13 09.04.13 14.04.13 09.04.13 10.04.13 - 14.04.13 14.04.13 10.04.13
_ Max-Zeit 16:19 06:19 04:19 02:19 15:19 - 10:19 16:19 15:19
Maximum _ 32,2 C 85 % 1022,7 hPa 1,6 l/m 49,9 km/h
W-NW
- 11,9 C 32,2 C 27,7 km/h
W-NW
Durchschnitt _ 11,0 C 72 % 1009,0 hPa #21,2 l/m 14,2 km/h W-NW 5,6 C 7,1 C 7,9 km/h
www.sexauwetter.de